createdAt,value
2019-02-18T00:04:17.096Z,97772.12
2019-02-18T00:09:12.971Z,97769.05
2019-02-18T00:14:08.952Z,97765.89
2019-02-18T00:19:04.891Z,97763.80
2019-02-18T00:24:00.808Z,97755.75
2019-02-18T00:28:56.753Z,97775.56
2019-02-18T00:33:52.688Z,97774.45
2019-02-18T00:38:48.657Z,97772.78
2019-02-18T00:43:44.516Z,97773.75
2019-02-18T00:48:40.464Z,97776.97
2019-02-18T00:53:36.655Z,97785.05
2019-02-18T00:58:32.592Z,97785.41
2019-02-18T01:03:28.536Z,97787.89
2019-02-18T01:08:24.374Z,97783.77
2019-02-18T01:13:21.131Z,97780.30
2019-02-18T01:18:17.086Z,97782.95
2019-02-18T01:23:12.969Z,97777.15
2019-02-18T01:28:08.915Z,97767.69
2019-02-18T01:33:04.752Z,97763.16
2019-02-18T01:38:00.728Z,97757.20
2019-02-18T01:42:56.558Z,97757.80
2019-02-18T01:47:52.822Z,97754.71
2019-02-18T01:52:48.718Z,97757.25
2019-02-18T01:57:44.674Z,97746.14
2019-02-18T02:02:40.561Z,97744.00
2019-02-18T02:07:36.530Z,97737.16
2019-02-18T02:12:32.737Z,97739.75
2019-02-18T02:17:28.629Z,97734.05
2019-02-18T02:22:24.474Z,97735.51
2019-02-18T02:27:20.412Z,97734.25
2019-02-18T02:32:16.743Z,97728.16
2019-02-18T02:37:12.714Z,97725.86
2019-02-18T02:42:08.891Z,97724.00
2019-02-18T02:47:04.750Z,97723.27
2019-02-18T02:52:00.790Z,97725.73
2019-02-18T02:56:56.997Z,97727.38
2019-02-18T03:01:53.107Z,97732.73
2019-02-18T03:06:49.059Z,97732.12
2019-02-18T03:11:45.215Z,97730.27
2019-02-18T03:16:41.156Z,97728.20
2019-02-18T03:21:37.342Z,97723.55
2019-02-18T03:26:34.594Z,97728.09
2019-02-18T03:31:33.972Z,97727.66
2019-02-18T03:36:29.879Z,97728.53
2019-02-18T03:41:25.805Z,97730.86
2019-02-18T03:46:21.641Z,97726.88
2019-02-18T03:51:17.642Z,97725.47
2019-02-18T03:56:13.625Z,97720.77
2019-02-18T04:01:09.834Z,97721.27
2019-02-18T04:06:05.872Z,97717.45
2019-02-18T04:11:02.187Z,97720.80
2019-02-18T04:15:58.219Z,97724.66
2019-02-18T04:20:57.121Z,97720.92
2019-02-18T04:25:53.173Z,97722.94
2019-02-18T04:30:49.083Z,97720.98
2019-02-18T04:35:45.017Z,97713.30
2019-02-18T04:40:40.907Z,97718.61
2019-02-18T04:45:36.886Z,97713.70
2019-02-18T04:50:32.710Z,97721.14
2019-02-18T04:55:30.600Z,97718.47
2019-02-18T05:00:29.240Z,97715.67
2019-02-18T05:05:30.920Z,97713.59
2019-02-18T05:10:26.540Z,97711.87
2019-02-18T05:15:27.546Z,97714.16
2019-02-18T05:20:30.629Z,97713.45
2019-02-18T05:25:26.532Z,97722.30
2019-02-18T05:30:22.727Z,97724.34
2019-02-18T05:35:22.001Z,97724.04
2019-02-18T05:40:17.949Z,97720.52
2019-02-18T05:45:16.496Z,97720.98
2019-02-18T05:50:12.457Z,97722.02
2019-02-18T05:55:10.093Z,97722.94
2019-02-18T06:00:07.602Z,97728.95
2019-02-18T06:05:03.606Z,97720.78
2019-02-18T06:09:59.551Z,97721.27
2019-02-18T06:14:56.756Z,97723.58
2019-02-18T06:19:52.991Z,97730.84
2019-02-18T06:24:51.029Z,97727.64
2019-02-18T06:29:47.835Z,97728.00
2019-02-18T06:34:43.755Z,97734.53
2019-02-18T06:39:41.646Z,97739.64
2019-02-18T06:44:46.721Z,97736.77
2019-02-18T06:49:42.535Z,97734.45
2019-02-18T06:54:38.467Z,97743.47
2019-02-18T06:59:40.957Z,97738.85
2019-02-18T07:04:55.376Z,97742.05
2019-02-18T07:10:01.748Z,97744.92
2019-02-18T07:14:57.877Z,97738.94
2019-02-18T07:19:53.936Z,97742.08
2019-02-18T07:24:51.398Z,97744.03
2019-02-18T07:29:47.398Z,97746.73
2019-02-18T07:34:43.412Z,97750.87
2019-02-18T07:39:42.596Z,97746.27
2019-02-18T07:44:40.879Z,97743.05
2019-02-18T07:49:39.724Z,97740.89
2019-02-18T07:54:35.647Z,97739.62
2019-02-18T07:59:34.363Z,97733.62
2019-02-18T08:04:33.091Z,97726.61
2019-02-18T08:09:34.723Z,97728.47
2019-02-18T08:14:32.126Z,97724.36
2019-02-18T08:19:28.019Z,97717.80
2019-02-18T08:24:23.945Z,97720.98
2019-02-18T08:29:27.533Z,97718.64
2019-02-18T08:34:23.584Z,97718.95
2019-02-18T08:39:19.551Z,97710.09
2019-02-18T08:44:15.577Z,97707.87
2019-02-18T08:49:11.462Z,97702.84
2019-02-18T08:54:07.357Z,97700.94
2019-02-18T08:59:04.988Z,97692.75
2019-02-18T09:04:01.066Z,97688.57
2019-02-18T09:08:58.781Z,97683.80
2019-02-18T09:13:54.910Z,97685.59
2019-02-18T09:18:50.882Z,97679.98
2019-02-18T09:24:10.132Z,97674.92
2019-02-18T09:29:08.800Z,97673.58
2019-02-18T09:34:04.751Z,97662.80
2019-02-18T09:39:01.605Z,97659.05
2019-02-18T09:43:57.584Z,97661.72
2019-02-18T09:48:53.389Z,97656.64
2019-02-18T09:53:49.255Z,97646.69
2019-02-18T09:58:45.153Z,97649.59
2019-02-18T10:03:43.588Z,97645.94
2019-02-18T10:08:41.168Z,97642.66
2019-02-18T10:13:36.991Z,97638.75
2019-02-18T10:18:32.904Z,97632.91
2019-02-18T10:23:30.631Z,97630.15
2019-02-18T10:28:26.506Z,97622.53
2019-02-18T10:33:22.314Z,97614.23
2019-02-18T10:38:19.397Z,97612.88
2019-02-18T10:43:15.155Z,97605.72
2019-02-18T10:48:10.950Z,97601.99
2019-02-18T10:53:07.207Z,97596.67
2019-02-18T10:58:03.179Z,97586.67
2019-02-18T11:02:58.939Z,97584.87
2019-02-18T11:07:54.763Z,97576.76
2019-02-18T11:12:50.648Z,97567.45
2019-02-18T11:17:46.511Z,97556.17
2019-02-18T11:22:42.264Z,97543.77
2019-02-18T11:27:38.066Z,97532.58
2019-02-18T11:32:34.993Z,97522.30
2019-02-18T11:37:30.812Z,97515.58
2019-02-18T11:42:26.840Z,97509.77
2019-02-18T11:47:22.630Z,97507.98
2019-02-18T11:52:18.528Z,97498.88
2019-02-18T11:57:14.427Z,97493.00
2019-02-18T12:02:10.559Z,97486.78
2019-02-18T12:07:06.756Z,97475.92
2019-02-18T12:12:02.572Z,97477.66
2019-02-18T12:16:58.498Z,97468.56
2019-02-18T12:21:54.491Z,97454.05
2019-02-18T12:26:50.365Z,97458.15
2019-02-18T12:31:46.196Z,97444.58
2019-02-18T12:36:42.210Z,97446.87
2019-02-18T12:41:47.963Z,97438.55
2019-02-18T12:46:35.958Z,97422.21
2019-02-18T12:51:31.803Z,97413.80
2019-02-18T12:56:27.840Z,97410.88
2019-02-18T13:01:23.722Z,97398.60
2019-02-18T13:06:19.615Z,97396.59
2019-02-18T13:11:17.041Z,97388.75
2019-02-18T13:16:12.875Z,97381.36
2019-02-18T13:21:09.945Z,97372.77
2019-02-18T13:26:05.897Z,97371.91
2019-02-18T13:31:01.847Z,97367.84
2019-02-18T13:35:58.297Z,97361.00
2019-02-18T13:40:54.551Z,97350.70
2019-02-18T13:45:50.559Z,97350.45
2019-02-18T13:50:46.371Z,97344.20
2019-02-18T13:55:42.406Z,97336.31
2019-02-18T14:00:38.829Z,97337.63
2019-02-18T14:05:40.099Z,97332.89
2019-02-18T14:10:35.984Z,97333.30
2019-02-18T14:15:32.030Z,97326.40
2019-02-18T14:20:27.888Z,97321.56
2019-02-18T14:25:24.034Z,97323.45
2019-02-18T14:30:20.147Z,97326.60
2019-02-18T14:35:17.663Z,97324.36
2019-02-18T14:40:15.754Z,97317.56
2019-02-18T14:45:12.269Z,97313.27
2019-02-18T14:50:08.284Z,97311.30
2019-02-18T14:55:04.510Z,97310.61
2019-02-18T15:00:03.163Z,97308.44
2019-02-18T15:04:59.575Z,97311.99
2019-02-18T15:09:58.125Z,97302.50
2019-02-18T15:14:54.046Z,97296.64
2019-02-18T15:19:50.067Z,97298.78
2019-02-18T15:24:45.919Z,97293.56
2019-02-18T15:29:42.090Z,97285.89
2019-02-18T15:34:38.065Z,97289.22
2019-02-18T15:39:33.888Z,97281.40
2019-02-18T15:44:29.855Z,97275.61
2019-02-18T15:49:25.778Z,97275.23
2019-02-18T15:54:21.687Z,97267.41
2019-02-18T15:59:17.434Z,97268.38
2019-02-18T16:04:13.386Z,97260.98
2019-02-18T16:09:10.411Z,97263.38
2019-02-18T16:14:06.388Z,97261.00
2019-02-18T16:19:02.667Z,97247.34
2019-02-18T16:23:58.480Z,97252.80
2019-02-18T16:28:54.362Z,97246.57
2019-02-18T16:33:50.248Z,97245.02
2019-02-18T16:38:46.246Z,97241.94
2019-02-18T16:43:42.007Z,97245.51
2019-02-18T16:48:38.017Z,97247.20
2019-02-18T16:53:34.004Z,97262.02
2019-02-18T16:58:29.970Z,97263.23
2019-02-18T17:03:25.961Z,97264.55
2019-02-18T17:08:22.181Z,97273.58
2019-02-18T17:13:18.185Z,97278.38
2019-02-18T17:18:14.599Z,97273.63
2019-02-18T17:23:12.131Z,97287.05
2019-02-18T17:28:08.157Z,97286.85
2019-02-18T17:33:11.335Z,97296.23
2019-02-18T17:38:07.384Z,97301.03
2019-02-18T17:43:03.379Z,97297.11
2019-02-18T17:47:59.423Z,97304.27
2019-02-18T17:52:55.349Z,97311.23
2019-02-18T17:58:31.372Z,97313.98
2019-02-18T18:03:40.650Z,97316.38
2019-02-18T18:08:36.587Z,97323.63
2019-02-18T18:13:49.842Z,97322.75
2019-02-18T18:18:48.359Z,97327.78
2019-02-18T18:23:45.567Z,97338.61
2019-02-18T18:28:41.460Z,97325.78
2019-02-18T18:33:37.327Z,97335.41
2019-02-18T18:38:33.570Z,97335.12
2019-02-18T18:43:34.457Z,97335.39
2019-02-18T18:48:30.414Z,97333.33
2019-02-18T18:53:28.547Z,97328.91
2019-02-18T18:58:24.203Z,97331.55
2019-02-18T19:03:20.105Z,97335.77
2019-02-18T19:08:15.990Z,97336.46
2019-02-18T19:13:14.178Z,97335.94
2019-02-18T19:18:14.958Z,97334.43
2019-02-18T19:23:11.697Z,97336.39
2019-02-18T19:28:07.932Z,97338.17
2019-02-18T19:33:04.376Z,97343.59
2019-02-18T19:38:02.379Z,97340.33
2019-02-18T19:43:00.545Z,97351.86
2019-02-18T19:47:56.497Z,97352.92
2019-02-18T19:52:55.957Z,97355.23
2019-02-18T19:57:51.871Z,97363.00
2019-02-18T20:02:47.794Z,97362.55
2019-02-18T20:07:54.976Z,97371.99
2019-02-18T20:12:50.945Z,97375.16
2019-02-18T20:17:47.002Z,97383.70
2019-02-18T20:22:43.600Z,97391.38
2019-02-18T20:27:41.084Z,97394.19
2019-02-18T20:32:39.317Z,97401.77
2019-02-18T20:37:41.645Z,97400.04
2019-02-18T20:42:50.088Z,97399.62
2019-02-18T20:48:17.495Z,97407.19
2019-02-18T20:53:26.038Z,97405.59
2019-02-18T20:58:28.075Z,97404.66
2019-02-18T21:03:31.713Z,97396.40
2019-02-18T21:08:50.791Z,97397.09
2019-02-18T21:14:00.106Z,97397.84
2019-02-18T21:18:58.367Z,97393.22
2019-02-18T21:23:56.250Z,97387.51
2019-02-18T21:29:04.665Z,97389.19
2019-02-18T21:34:09.329Z,97403.32
2019-02-18T21:39:10.424Z,97399.28
2019-02-18T21:44:09.648Z,97397.50
2019-02-18T21:49:12.870Z,97398.05
2019-02-18T21:54:09.750Z,97397.83
2019-02-18T21:59:05.709Z,97407.90
2019-02-18T22:04:01.793Z,97411.16
2019-02-18T22:09:00.487Z,97409.11
2019-02-18T22:14:01.486Z,97415.19
2019-02-18T22:18:59.838Z,97409.59
2019-02-18T22:23:55.885Z,97409.44
2019-02-18T22:28:53.797Z,97420.55
2019-02-18T22:33:51.223Z,97421.66
2019-02-18T22:38:49.209Z,97426.95
2019-02-18T22:43:46.546Z,97423.97
2019-02-18T22:48:42.438Z,97423.89
2019-02-18T22:53:38.477Z,97427.84
2019-02-18T22:58:35.576Z,97432.79
2019-02-18T23:03:34.905Z,97439.36
2019-02-18T23:08:30.715Z,97439.15
2019-02-18T23:13:46.255Z,97441.17
2019-02-18T23:18:43.415Z,97446.77
2019-02-18T23:23:39.217Z,97446.84
2019-02-18T23:28:35.021Z,97448.35
2019-02-18T23:33:31.002Z,97453.30
2019-02-18T23:38:26.890Z,97467.82
2019-02-18T23:43:22.942Z,97466.81
2019-02-18T23:48:19.152Z,97468.50
2019-02-18T23:53:23.005Z,97470.87
2019-02-18T23:58:24.869Z,97473.78
